Flight Track Log - Related Links

Times and Time Zones

All times are in EDT time to prevent confusion due to time zone crossing. See the SWA1787 flight status page for this flight to view local times or setup timezone preferences in your user account.

Time Position Orientation Groundspeed Altitude Reporting Facility
EDT Latitude Longitude Course Direction KTS MPH feet Rate Location/Type
Sat 07:57:37 PM 27.9167 -82.5667 207° Southwest 202 232 3,500  Level Tampa TRACON
Sat 07:59:53 PM 27.7531 -82.5719 182° South 273 314 10,300 2,694 Climbing Miami Center
Sat 08:00:53 PM 27.6650 -82.5300 157° South 302 348 12,300 2,700 Climbing Miami Center
Sat 08:01:53 PM 27.5667 -82.4808 156° South 350 403 15,700 3,500 Climbing Miami Center
Sat 08:02:53 PM 27.4589 -82.4122 151° Southeast 390 449 19,300 3,450 Climbing Miami Center
Sat 08:03:53 PM 27.3669 -82.3589 153° Southeast 413 475 22,600 2,650 Climbing Miami Center
Sat 08:04:53 PM 27.2608 -82.2953 152° Southeast 427 491 24,600 1,200 Climbing Miami Center
Sat 08:05:53 PM 27.1425 -82.2244 152° Southeast 427 491 25,000 200 Climbing Miami Center
Sat 08:06:53 PM 27.0317 -82.1706 157° South 433 498 25,000  Level Miami Center
Sat 08:07:53 PM 26.9225 -82.1353 164° South 438 504 25,000 -50 Level Miami Center
Sat 08:08:53 PM 26.8050 -82.0903 161° South 438 504 24,900 -500 Descending Miami Center
Sat 08:09:53 PM 26.7119 -82.0094 142° Southeast 423 487 24,000 -1,000 Descending Miami Center
Sat 08:10:53 PM 26.6450 -81.8950 123° Southeast 423 487 22,900 -1,150 Descending Miami Center
Sat 08:11:53 PM 26.5700 -81.7711 124° Southeast 430 495 21,700 -1,150 Descending Miami Center
Sat 08:12:53 PM 26.5044 -81.6664 125° Southeast 425 489 20,600 -1,050 Descending Miami Center
Sat 08:13:53 PM 26.4433 -81.5617 123° Southeast 412 474 19,600 -1,000 Descending Miami Center
Sat 08:14:53 PM 26.3775 -81.4594 126° Southeast 412 474 18,600 -1,700 Descending Miami Center
Sat 08:15:53 PM 26.3119 -81.3572 126° Southeast 407 468 16,200 -2,650 Descending Miami Center
Sat 08:16:53 PM 26.2586 -81.2533 120° Southeast 397 457 13,300 -2,450 Descending Miami Center
Sat 08:17:53 PM 26.2092 -81.1614 121° Southeast 376 433 11,300 -1,879 Descending Miami Center
Sat 08:18:32 PM 26.1775 -81.1069 123° Southeast 321 369 10,200 -1,620 Descending Miami Center
Sat 08:19:33 PM 26.1336 -81.0267 121° Southeast 292 336 8,600 -1,082 Descending Miami Center
Sat 08:20:34 PM 26.1006 -80.9469 115° Southeast 269 310 8,000 -744 Descending Miami Center
Sat 08:21:34 PM 26.0964 -80.8706 93° East 245 282 7,100 -992 Descending Miami Center
Sat 08:22:35 PM 26.0942 -80.7964 92° East 238 274 6,000 -541 Descending Miami Center
Sat 08:23:36 PM 26.0900 -80.7222 94° East 243 280 6,000 -344 Level Miami Center
Sat 08:24:37 PM 26.0878 -80.6481 92° East 243 280 5,300 -541 Descending Miami Center
Sat 08:25:38 PM 26.0856 -80.5694 92° East 234 269 4,900 -891 Descending Miami Center
Sat 08:26:45 PM 26.0814 -80.4861 93° East 252 290 3,400 -1,125 Descending Miami Center
Sat 08:27:46 PM 26.0747 -80.4094 96° East 253 291 2,500 -446 Descending Miami Center
Sat 08:28:46 PM 26.0767 -80.3381 88° East 218 251 2,500 -397 Level Miami Center
Sat 08:29:47 PM 26.0761 -80.2731 91° East 188 216 1,700 -776 Descending Miami Center
Sat 08:30:42 PM 26.0750 -80.2314 92° East 138 159 1,000 -672 Descending Miami Center
Sat 08:31:43 PM 26.0736 -80.1897 92° East 136 157 400 -590 Descending Miami Center
Sat 08:33:00 PM 26.0667 -80.1500 180° South  Level FlightAware Approximate
Sat 08:40:00 PM 26.0726 -80.1527 180° South  Level Estimated

Login

Don't have an account? Register now (free) for customized features, flight alerts, and more!